Time;durP1;ratioP1;P1;durP2;ratioP2;P2;SDS_P1;SDS_P2;PMS_P1;PMS_P2;Temp;Humidity;BMP_temperature;BMP_pressure;BME280_temperature;BME280_humidity;BME280_pressure;Samples;Min_cycle;Max_cycle;Signal;HPM_P1;HPM_P2
2022/04/18 00:02:02;;;;;;;56.68;22.60;;;;;;;0.21;69.72;99440.66;4133783;83;21078;-87
2022/04/18 00:08:08;;;;;;;52.00;21.17;;;;;;;0.18;69.73;99431.83;4117221;85;21026;-86
2022/04/18 00:14:12;;;;;;;53.13;20.87;;;;;;;0.09;70.09;99421.50;4126548;83;21087;-87
2022/04/18 00:26:39;;;;;;;66.10;24.15;;;;;;;-0.11;69.73;99416.47;4102229;83;21066;-87
2022/04/18 00:32:50;;;;;;;62.27;22.83;;;;;;;-0.29;69.88;99414.61;4121644;85;21056;-88
2022/04/18 00:38:53;;;;;;;80.27;29.17;;;;;;;-0.38;70.61;99418.53;4125266;83;21725;-88
2022/04/18 00:44:55;;;;;;;66.50;24.80;;;;;;;-0.45;69.67;99407.33;4108915;85;20995;-88
2022/04/18 00:50:56;;;;;;;68.80;25.87;;;;;;;-0.67;69.42;99393.69;4136515;83;21161;-88
2022/04/18 00:56:58;;;;;;;93.27;33.27;;;;;;;-0.69;70.36;99396.42;4129491;85;21028;-88
2022/04/18 01:02:59;;;;;;;72.20;30.63;;;;;;;-0.80;70.93;99394.41;4133949;85;21012;-87
2022/04/18 01:09:02;;;;;;;63.70;26.57;;;;;;;-0.92;70.61;99385.98;4122617;83;21034;-87
2022/04/18 01:15:06;;;;;;;66.60;27.90;;;;;;;-0.83;72.84;99379.43;4122939;83;21111;-87
2022/04/18 01:21:12;;;;;;;66.00;28.83;;;;;;;-0.72;72.47;99376.28;4125839;83;21127;-87
2022/04/18 01:33:36;;;;;;;49.57;22.20;;;;;;;-0.92;71.00;99365.83;4139960;83;21020;-86
2022/04/18 01:39:37;;;;;;;51.73;22.77;;;;;;;-0.91;73.53;99357.23;4160839;83;21116;-87
2022/04/18 01:45:39;;;;;;;48.83;22.40;;;;;;;-0.53;74.29;99347.48;4150973;83;22014;-87
2022/04/18 01:51:43;;;;;;;45.77;21.90;;;;;;;-0.26;74.25;99342.19;4157944;83;21068;-87
2022/04/18 01:57:44;;;;;;;51.33;23.57;;;;;;;-0.08;74.81;99333.80;4140131;85;21055;-87
2022/04/18 02:03:45;;;;;;;55.60;25.43;;;;;;;-0.04;72.75;99338.29;4202355;83;21043;-87
2022/04/18 02:09:47;;;;;;;49.00;24.30;;;;;;;-0.33;73.64;99339.06;4227014;83;21015;-88
2022/04/18 02:15:48;;;;;;;44.77;22.80;;;;;;;-0.43;72.14;99343.29;4234791;82;21075;-86
2022/04/18 02:21:51;;;;;;;50.57;24.80;;;;;;;-0.47;77.85;99318.06;4223199;82;21058;-88
2022/04/18 02:27:52;;;;;;;39.43;21.73;;;;;;;-0.55;74.75;99315.27;4147258;85;21050;-87
2022/04/18 02:33:54;;;;;;;42.53;20.20;;;;;;;-0.44;74.25;99318.03;4167121;82;21072;-86
2022/04/18 02:39:59;;;;;;;46.07;22.77;;;;;;;-0.47;77.40;99309.99;4174932;82;21018;-87
2022/04/18 02:45:59;;;;;;;44.00;20.03;;;;;;;-0.45;76.47;99312.38;4180672;84;21079;-87
2022/04/18 02:52:01;;;;;;;40.13;20.97;;;;;;;-0.28;75.60;99303.20;4141470;85;21060;-86
2022/04/18 02:58:03;;;;;;;45.47;22.17;;;;;;;-0.19;77.07;99303.56;4135588;85;21027;-87
2022/04/18 03:04:06;;;;;;;45.23;21.30;;;;;;;-0.14;76.03;99288.68;4143128;85;22374;-87
2022/04/18 03:10:08;;;;;;;41.63;21.03;;;;;;;0.09;77.29;99290.14;4121499;85;21059;-87
2022/04/18 03:16:12;;;;;;;37.00;19.87;;;;;;;0.28;77.15;99280.06;4152021;85;21026;-88
2022/04/18 03:22:13;;;;;;;41.20;19.62;;;;;;;0.42;77.05;99280.84;4191046;82;21037;-87
2022/04/18 03:28:17;;;;;;;37.88;18.30;;;;;;;0.46;76.65;99267.01;4165683;83;21571;-87
2022/04/18 03:34:19;;;;;;;38.77;18.93;;;;;;;0.54;76.77;99270.34;4153775;83;21731;-88
2022/04/18 03:40:21;;;;;;;41.08;19.77;;;;;;;0.61;76.72;99258.61;4181092;83;20978;-88
2022/04/18 03:46:23;;;;;;;50.60;21.50;;;;;;;0.51;76.09;99265.56;4158334;83;21550;-89
2022/04/18 03:52:25;;;;;;;49.35;23.00;;;;;;;0.42;76.42;99272.77;4171545;84;21033;-89
2022/04/18 03:58:28;;;;;;;40.20;20.30;;;;;;;0.38;76.41;99273.91;4163431;84;21108;-88
2022/04/18 04:04:30;;;;;;;42.67;19.80;;;;;;;0.43;77.11;99262.23;4161579;84;20999;-88
2022/04/18 04:10:34;;;;;;;40.10;19.50;;;;;;;0.39;76.20;99249.13;4173722;83;21006;-89
2022/04/18 04:16:38;;;;;;;39.42;19.77;;;;;;;0.43;77.29;99252.80;4236191;83;21034;-88
2022/04/18 04:22:48;;;;;;;38.83;19.42;;;;;;;0.44;77.52;99249.80;4230531;82;21018;-87
2022/04/18 04:29:01;;;;;;;42.43;20.27;;;;;;;0.58;77.88;99237.67;4080871;83;21116;-89
2022/04/18 04:35:08;;;;;;;37.95;18.70;;;;;;;0.82;78.27;99248.41;4137382;84;21014;-88
2022/04/18 04:41:11;;;;;;;37.48;19.35;;;;;;;0.98;78.33;99260.44;4166582;83;21070;-89
2022/04/18 04:47:14;;;;;;;37.58;18.90;;;;;;;1.14;78.27;99256.83;4182865;83;21002;-88
2022/04/18 04:53:16;;;;;;;36.50;19.15;;;;;;;1.31;78.01;99259.63;4160029;84;21060;-88
2022/04/18 04:59:19;;;;;;;41.40;20.52;;;;;;;1.40;77.99;99263.17;4177277;83;21006;-88
2022/04/18 05:05:20;;;;;;;39.23;18.17;;;;;;;1.46;77.95;99260.05;4180923;84;21088;-88
2022/04/18 05:11:22;;;;;;;40.48;19.65;;;;;;;1.48;77.40;99257.84;4136281;84;22142;-88
2022/04/18 05:17:26;;;;;;;32.33;17.52;;;;;;;1.35;76.75;99237.67;4166061;82;21074;-88
2022/04/18 05:23:29;;;;;;;32.78;17.90;;;;;;;1.45;77.26;99249.56;4187613;82;21081;-88
2022/04/18 05:29:31;;;;;;;36.88;18.17;;;;;;;1.47;76.80;99255.45;4135809;85;21104;-88
2022/04/18 05:35:33;;;;;;;39.78;21.23;;;;;;;1.54;77.21;99274.68;4138389;85;21095;-89
2022/04/18 05:41:35;;;;;;;33.70;17.55;;;;;;;1.72;77.66;99289.88;4179360;84;21064;-88
2022/04/18 05:47:37;;;;;;;42.25;21.17;;;;;;;1.61;77.69;99287.97;4145238;84;21091;-87
2022/04/18 05:53:39;;;;;;;54.08;26.90;;;;;;;1.95;78.84;99254.96;4167377;84;21611;-88
2022/04/18 05:59:56;;;;;;;47.55;25.37;;;;;;;2.53;78.54;99273.00;4169517;83;21020;-87
2022/04/18 06:06:00;;;;;;;54.67;28.30;;;;;;;2.72;78.41;99253.24;4137565;85;21072;-87
2022/04/18 06:12:02;;;;;;;53.33;27.22;;;;;;;2.70;78.86;99256.00;4132613;85;20979;-85
2022/04/18 06:18:05;;;;;;;56.35;27.35;;;;;;;2.72;79.48;99242.42;4159707;85;21060;-88
2022/04/18 06:24:07;;;;;;;49.85;26.68;;;;;;;2.90;80.06;99252.13;4071289;85;53352;-87
2022/04/18 06:30:10;;;;;;;42.60;24.72;;;;;;;3.62;79.92;99261.64;4014631;87;21609;-87
2022/04/18 06:36:14;;;;;;;49.45;26.93;;;;;;;4.08;78.47;99262.20;4012162;87;21067;-86
2022/04/18 06:42:18;;;;;;;42.20;23.60;;;;;;;4.40;77.90;99264.28;4013254;87;21020;-87
2022/04/18 06:48:24;;;;;;;43.45;23.30;;;;;;;5.21;77.71;99260.56;4015195;87;21122;-87
2022/04/18 06:54:35;;;;;;;38.10;22.07;;;;;;;5.56;76.61;99255.05;4019397;87;21043;-88
2022/04/18 07:00:39;;;;;;;39.33;20.82;;;;;;;5.69;75.87;99249.86;4010509;87;21446;-86
2022/04/18 07:06:40;;;;;;;38.23;20.15;;;;;;;5.55;75.34;99238.51;4012690;87;21118;-87
2022/04/18 07:12:43;;;;;;;32.28;18.17;;;;;;;5.38;75.44;99240.84;3990699;87;21088;-87
2022/04/18 07:18:45;;;;;;;34.78;19.05;;;;;;;5.54;75.77;99232.30;4015494;87;21102;-87
2022/04/18 07:24:48;;;;;;;31.97;17.32;;;;;;;5.71;75.27;99219.89;4013911;87;21083;-88
2022/04/18 07:30:50;;;;;;;28.10;15.08;;;;;;;5.87;75.00;99222.18;4013403;87;21543;-87
2022/04/18 07:36:52;;;;;;;26.60;14.95;;;;;;;6.06;74.31;99215.63;4011341;87;21146;-87
2022/04/18 07:42:53;;;;;;;21.48;13.20;;;;;;;6.59;70.66;99202.34;4014305;87;21700;-88
2022/04/18 07:48:55;;;;;;;13.32;8.15;;;;;;;7.12;72.41;99210.67;4013887;87;21083;-88
2022/04/18 07:54:57;;;;;;;17.23;10.53;;;;;;;7.74;71.85;99215.67;4013885;87;21536;-87
2022/04/18 08:01:00;;;;;;;20.77;12.45;;;;;;;8.27;71.70;99203.95;4008170;87;21074;-88
2022/04/18 08:07:02;;;;;;;22.70;12.88;;;;;;;8.26;70.22;99204.52;3993321;87;21631;-87
2022/04/18 08:13:35;;;;;;;23.98;12.13;;;;;;;8.45;68.04;99196.39;4011876;87;21127;-88
2022/04/18 08:19:54;;;;;;;13.18;8.58;;;;;;;8.59;67.77;99198.63;4012029;87;21055;-87
2022/04/18 08:25:57;;;;;;;14.93;9.25;;;;;;;9.09;63.87;99186.23;3984173;87;21107;-87
2022/04/18 08:32:07;;;;;;;14.68;10.03;;;;;;;9.29;63.80;99192.69;3960510;89;21092;-87
2022/04/18 08:38:09;;;;;;;10.00;5.87;;;;;;;10.00;64.69;99179.70;4040935;87;22336;-86
2022/04/18 08:44:36;;;;;;;11.45;7.17;;;;;;;10.25;62.84;99174.06;4034216;87;21035;-86
2022/04/18 08:57:00;;;;;;;10.28;6.97;;;;;;;10.63;60.22;99167.58;4044587;85;21032;-88
2022/04/18 09:03:02;;;;;;;9.65;5.95;;;;;;;11.02;57.18;99162.78;4044700;87;21065;-87
2022/04/18 09:09:12;;;;;;;11.63;7.05;;;;;;;11.27;55.77;99154.06;4035737;87;21028;-87
2022/04/18 09:15:18;;;;;;;10.65;6.45;;;;;;;11.12;56.40;99142.15;4034842;87;20968;-88
2022/04/18 09:21:22;;;;;;;11.53;6.83;;;;;;;10.60;56.74;99130.77;4030131;87;21103;-87
2022/04/18 09:27:29;;;;;;;19.70;8.48;;;;;;;10.04;53.89;99130.53;4063270;86;21581;-87
2022/04/18 09:33:47;;;;;;;9.40;5.70;;;;;;;9.84;54.90;99124.92;4068600;86;21206;-86
2022/04/18 09:39:53;;;;;;;11.80;6.83;;;;;;;11.00;52.17;99120.50;4067020;86;21065;-87
2022/04/18 09:45:55;;;;;;;;;;;;;;;10.85;53.84;99125.02;4082514;86;21075;-87
2022/04/18 09:52:02;;;;;;;10.88;6.00;;;;;;;10.53;51.52;99113.46;4072282;86;20215;-87
2022/04/18 09:58:04;;;;;;;8.80;5.47;;;;;;;9.72;51.82;99110.89;4069764;86;21122;-88
2022/04/18 10:04:07;;;;;;;9.28;6.05;;;;;;;9.29;51.26;99116.20;4081906;85;21034;-87
2022/04/18 10:10:10;;;;;;;10.35;5.50;;;;;;;9.12;51.85;99107.67;4078783;86;21034;-88
2022/04/18 10:16:13;;;;;;;8.13;5.80;;;;;;;9.10;51.58;99104.51;4073739;86;21050;-87
2022/04/18 10:22:49;;;;;;;9.10;5.00;;;;;;;9.02;51.55;99100.09;4070247;86;21074;-87
2022/04/18 10:28:54;;;;;;;9.58;4.83;;;;;;;9.04;51.51;99095.84;4046556;86;21140;-87
2022/04/18 10:35:04;;;;;;;9.65;4.80;;;;;;;9.31;51.45;99092.61;4038376;87;21007;-88
2022/04/18 10:41:39;;;;;;;8.88;5.55;;;;;;;9.81;51.00;99088.75;4044955;87;20977;-87
2022/04/18 10:48:01;;;;;;;7.90;4.97;;;;;;;10.13;49.77;99083.22;4047615;86;21118;-87
2022/04/18 10:54:21;;;;;;;6.45;4.35;;;;;;;11.13;47.08;99068.41;4013891;87;20994;-87
2022/04/18 11:00:29;;;;;;;9.08;3.87;;;;;;;11.84;46.63;99058.25;4046330;87;22175;-87
2022/04/18 11:06:42;;;;;;;4.83;2.90;;;;;;;13.02;47.16;99044.12;4038920;85;21123;-87
2022/04/18 11:12:43;;;;;;;6.08;3.15;;;;;;;13.64;47.16;99047.33;4054606;85;21612;-87
2022/04/18 11:19:11;;;;;;;6.72;3.40;;;;;;;12.94;46.54;99048.00;4043889;87;21035;-87
2022/04/18 11:25:15;;;;;;;7.97;4.33;;;;;;;11.85;46.26;99050.25;4046768;86;21098;-86
2022/04/18 11:31:29;;;;;;;8.03;4.62;;;;;;;11.11;45.96;99040.59;4073293;86;21106;-86
2022/04/18 11:37:34;;;;;;;7.10;3.67;;;;;;;10.51;46.34;99034.46;4069608;86;21539;-87
2022/04/18 11:43:35;;;;;;;5.15;3.50;;;;;;;10.07;45.68;99023.92;4070994;86;21051;-87
2022/04/18 11:49:40;;;;;;;6.45;4.17;;;;;;;10.06;45.78;99020.96;4076929;86;21562;-87
2022/04/18 11:55:46;;;;;;;4.35;3.08;;;;;;;10.21;44.81;99020.01;4079411;86;21022;-87
2022/04/18 12:08:12;;;;;;;5.50;2.62;;;;;;;10.29;44.22;98997.66;4080727;86;22001;-88
2022/04/18 12:14:20;;;;;;;4.85;2.90;;;;;;;10.57;43.96;98994.64;4075079;86;20963;-87
2022/04/18 12:20:30;;;;;;;6.15;2.98;;;;;;;10.84;42.44;98990.63;4075405;86;21022;-87
2022/04/18 12:26:38;;;;;;;3.22;2.65;;;;;;;10.98;42.36;98983.92;4062542;86;21766;-87
2022/04/18 12:32:41;;;;;;;3.85;2.50;;;;;;;10.45;41.71;98984.53;4048799;85;20996;-87
2022/04/18 12:38:47;;;;;;;4.92;3.22;;;;;;;10.07;41.52;98984.27;4033138;86;20996;-86
2022/04/18 12:44:58;;;;;;;6.42;2.80;;;;;;;9.64;42.19;98982.09;4044470;85;21027;-86
2022/04/18 12:51:02;;;;;;;6.30;3.20;;;;;;;9.34;41.77;98984.77;4076152;87;21055;-86
2022/04/18 12:57:04;;;;;;;6.35;2.98;;;;;;;9.23;41.90;98978.35;4045008;85;21555;-87
2022/04/18 13:03:08;;;;;;;4.37;2.58;;;;;;;9.25;42.33;98971.95;4036484;87;21031;-88
2022/04/18 13:09:10;;;;;;;3.95;2.83;;;;;;;9.53;41.91;98972.95;4040882;86;21072;-88
2022/04/18 13:15:12;;;;;;;4.87;2.92;;;;;;;9.79;41.90;98962.59;4036516;87;21062;-88
2022/04/18 13:21:16;;;;;;;7.08;3.20;;;;;;;10.08;41.42;98961.81;4043993;87;21027;-87
2022/04/18 13:27:28;;;;;;;5.75;3.20;;;;;;;10.30;41.67;98958.17;4051418;86;21053;-86
2022/04/18 13:33:31;;;;;;;5.30;3.20;;;;;;;10.25;41.24;98953.03;4071705;86;21030;-86
2022/04/18 13:39:32;;;;;;;5.47;2.72;;;;;;;10.12;40.12;98958.53;4084264;86;21014;-87
2022/04/18 13:45:33;;;;;;;11.65;4.35;;;;;;;9.91;40.27;98944.02;4080510;86;21058;-86
2022/04/18 13:51:35;;;;;;;5.35;2.90;;;;;;;10.03;40.82;98941.59;4076967;86;21026;-87
2022/04/18 13:57:37;;;;;;;6.78;3.47;;;;;;;10.30;40.40;98937.66;4076331;86;21115;-87
2022/04/18 14:03:52;;;;;;;12.37;4.30;;;;;;;10.35;40.79;98933.23;4075427;85;21122;-87
2022/04/18 14:09:54;;;;;;;5.62;3.22;;;;;;;10.41;40.62;98913.94;4083365;86;21031;-87
2022/04/18 14:22:16;;;;;;;8.03;3.67;;;;;;;10.58;40.15;98902.38;4075635;86;21579;-86
2022/04/18 14:28:23;;;;;;;4.53;2.87;;;;;;;10.67;40.20;98893.27;4029012;86;21131;-86
2022/04/18 14:34:24;;;;;;;7.92;3.37;;;;;;;10.79;40.54;98887.52;3993199;88;21545;-86
2022/04/18 14:40:28;;;;;;;4.65;2.87;;;;;;;10.36;40.35;98883.59;3992320;88;21060;-87
2022/04/18 14:46:30;;;;;;;5.37;2.70;;;;;;;10.64;40.36;98875.66;3989988;88;21063;-86
2022/04/18 14:52:32;;;;;;;3.67;2.85;;;;;;;10.77;40.25;98870.67;3989575;88;21103;-87
2022/04/18 14:58:33;;;;;;;6.50;3.08;;;;;;;10.52;40.23;98867.70;3989323;88;21079;-87
2022/04/18 15:04:34;;;;;;;10.65;5.85;;;;;;;10.23;40.50;98865.06;3990818;88;21107;-87
2022/04/18 15:10:37;;;;;;;5.33;2.90;;;;;;;10.18;40.47;98868.94;3991742;88;21556;-86
2022/04/18 15:16:39;;;;;;;4.92;2.92;;;;;;;10.10;39.89;98863.78;3990732;88;21186;-87
2022/04/18 15:22:41;;;;;;;7.08;2.72;;;;;;;9.80;40.15;98856.97;3990397;88;21071;-87
2022/04/18 15:28:43;;;;;;;4.28;2.77;;;;;;;9.60;40.38;98854.76;4019630;87;21094;-87
2022/04/18 15:34:44;;;;;;;5.95;3.02;;;;;;;9.47;40.24;98850.87;4035987;87;21032;-86
2022/04/18 15:40:45;;;;;;;4.45;3.02;;;;;;;9.40;40.32;98858.20;4037721;86;21012;-87
2022/04/18 15:46:46;;;;;;;6.10;2.92;;;;;;;9.27;40.44;98856.86;4045196;87;21713;-86
2022/04/18 15:52:48;;;;;;;9.08;2.75;;;;;;;9.14;40.42;98846.73;4037802;85;21043;-86
2022/04/18 15:58:50;;;;;;;5.03;2.50;;;;;;;9.22;40.78;98850.34;4038228;87;21035;-87
2022/04/18 16:04:51;;;;;;;3.87;2.22;;;;;;;9.27;40.76;98849.44;4045412;87;21114;-87
2022/04/18 16:10:52;;;;;;;7.30;3.10;;;;;;;9.27;40.78;98846.70;4035518;87;21102;-87
2022/04/18 16:16:57;;;;;;;7.20;3.05;;;;;;;9.17;40.99;98848.73;4044754;87;21035;-87
2022/04/18 16:22:58;;;;;;;4.00;2.30;;;;;;;9.02;40.89;98845.56;4041318;87;21003;-87
2022/04/18 16:35:20;;;;;;;5.67;2.67;;;;;;;8.62;40.75;98841.25;4040188;87;21012;-86
2022/04/18 16:47:41;;;;;;;13.13;4.20;;;;;;;8.35;40.77;98834.75;4038975;87;21083;-87
2022/04/18 16:53:45;;;;;;;27.17;10.00;;;;;;;8.24;41.13;98832.41;4040017;87;20964;-87
2022/04/18 16:59:46;;;;;;;8.45;3.95;;;;;;;8.16;41.16;98828.72;4040955;87;21132;-87
2022/04/18 17:05:47;;;;;;;9.40;3.10;;;;;;;8.10;41.29;98824.72;4049994;85;21070;-87
2022/04/18 17:11:49;;;;;;;4.62;2.60;;;;;;;8.02;41.58;98820.29;4038472;85;22020;-88
2022/04/18 17:17:50;;;;;;;4.37;2.70;;;;;;;7.95;41.49;98822.90;3936465;84;10000348;-87
2022/04/18 17:23:54;;;;;;;5.35;2.47;;;;;;;7.89;41.65;98826.48;4036497;87;21320;-86
2022/04/18 17:29:56;;;;;;;5.60;2.60;;;;;;;7.85;41.78;98817.46;4003970;86;21040;-87
2022/04/18 17:35:59;;;;;;;6.95;3.10;;;;;;;7.84;42.38;98820.55;3988090;88;21173;-87
2022/04/18 17:42:01;;;;;;;6.08;4.12;;;;;;;7.76;42.61;98820.99;3988035;88;21091;-87
2022/04/18 17:48:03;;;;;;;12.85;7.47;;;;;;;7.70;43.82;98816.19;3984050;88;21182;-86
2022/04/18 18:00:27;;;;;;;20.85;12.65;;;;;;;7.51;44.44;98816.19;3993376;89;21036;-86
2022/04/18 18:06:28;;;;;;;26.57;12.75;;;;;;;7.39;45.57;98821.80;3991888;88;21462;-87
2022/04/18 18:12:29;;;;;;;21.77;11.30;;;;;;;7.27;45.69;98819.18;3992232;88;21995;-87
2022/04/18 18:18:30;;;;;;;21.25;11.55;;;;;;;7.06;46.50;98818.74;3990211;88;21383;-85
2022/04/18 18:24:31;;;;;;;24.05;11.20;;;;;;;6.97;47.17;98820.88;3990726;88;21616;-86
2022/04/18 18:30:33;;;;;;;22.00;10.55;;;;;;;6.89;47.48;98817.78;4029743;86;21115;-86
2022/04/18 18:36:40;;;;;;;17.70;9.23;;;;;;;6.74;47.74;98813.94;4036023;87;21913;-87
2022/04/18 18:42:43;;;;;;;13.77;7.00;;;;;;;6.55;47.95;98819.30;4036475;87;20988;-86
2022/04/18 18:48:57;;;;;;;15.80;7.75;;;;;;;6.38;48.64;98820.47;4047864;87;20987;-86
2022/04/18 18:54:59;;;;;;;21.07;11.57;;;;;;;6.23;48.64;98811.72;4034737;87;20976;-85
2022/04/18 19:01:00;;;;;;;16.40;8.90;;;;;;;6.15;50.12;98801.05;4043484;87;20976;-86
2022/04/18 19:07:04;;;;;;;20.43;11.22;;;;;;;6.12;51.14;98797.08;4032884;87;22054;-87
2022/04/18 19:13:05;;;;;;;22.02;12.33;;;;;;;6.01;51.18;98793.89;3925375;87;10000054;-86
2022/04/18 19:31:49;;;;;;;22.82;12.35;;;;;;;5.72;52.38;98781.45;4034835;87;21063;-86
2022/04/18 19:37:50;;;;;;;29.77;18.67;;;;;;;5.71;55.14;98773.09;4037634;87;20972;-87
2022/04/18 19:43:51;;;;;;;27.32;17.20;;;;;;;5.52;54.94;98763.46;4040043;87;20965;-86
2022/04/18 19:49:53;;;;;;;31.02;16.37;;;;;;;5.46;55.48;98759.98;4042673;87;21996;-86
2022/04/18 19:56:05;;;;;;;33.00;18.15;;;;;;;5.43;55.36;98750.62;4038353;87;21012;-86
2022/04/18 20:02:06;;;;;;;32.95;17.02;;;;;;;5.31;55.61;98745.22;4035633;88;21008;-86
2022/04/18 20:08:27;;;;;;;;;;;;;;;;;;;;;
2022/04/18 20:14:11;;;;;;;30.27;15.35;;;;;;;5.24;55.30;98740.97;3933150;86;10000205;-86
2022/04/18 20:20:15;;;;;;;32.55;17.55;;;;;;;5.17;56.46;98738.05;4058451;87;21607;-86
2022/04/18 20:26:18;;;;;;;34.60;17.45;;;;;;;5.02;56.56;98737.99;4037845;87;21040;-86
2022/04/18 20:32:19;;;;;;;30.90;14.87;;;;;;;4.96;56.68;98732.59;3992658;87;21020;-86
2022/04/18 20:38:20;;;;;;;33.23;17.65;;;;;;;4.92;56.81;98727.06;3993177;88;21345;-86
2022/04/18 20:44:21;;;;;;;49.80;21.93;;;;;;;4.85;57.57;98728.99;3990539;88;21094;-87
2022/04/18 20:50:24;;;;;;;37.60;19.55;;;;;;;4.57;56.70;98733.58;3990990;88;21000;-87
2022/04/18 21:02:45;;;;;;;31.87;16.77;;;;;;;4.28;57.17;98723.56;3988687;88;21052;-86
2022/04/18 21:08:47;;;;;;;36.98;19.52;;;;;;;4.18;57.76;98716.68;3988580;88;21060;-86
2022/04/18 21:14:50;;;;;;;36.55;19.20;;;;;;;4.03;58.48;98715.22;3988337;88;21504;-86
2022/04/18 21:20:53;;;;;;;43.23;21.37;;;;;;;4.01;58.58;98708.78;3988282;88;21044;-85
2022/04/18 21:26:55;;;;;;;43.00;20.85;;;;;;;3.89;60.23;98709.34;3992411;88;21076;-86
2022/04/18 21:32:58;;;;;;;39.45;19.17;;;;;;;3.80;59.40;98701.91;3992082;88;21064;-86
2022/04/18 21:39:03;;;;;;;30.55;14.10;;;;;;;3.66;61.74;98691.96;3992949;89;21040;-86
2022/04/18 21:45:06;;;;;;;27.32;14.23;;;;;;;3.57;62.36;98683.16;3988776;88;21461;-87
2022/04/18 21:51:09;;;;;;;34.05;14.55;;;;;;;3.62;61.78;98684.30;3987595;88;21135;-86
2022/04/18 21:57:10;;;;;;;30.25;14.83;;;;;;;3.73;61.75;98674.03;3990612;88;21078;-85
2022/04/18 22:03:12;;;;;;;53.87;22.67;;;;;;;3.71;61.60;98664.09;3990723;88;21023;-86
2022/04/18 22:09:13;;;;;;;37.15;15.88;;;;;;;3.61;61.35;98660.49;3989846;89;22030;-86
2022/04/18 22:15:15;;;;;;;35.00;16.07;;;;;;;3.66;62.26;98657.57;3991132;88;21101;-86
2022/04/18 22:27:36;;;;;;;46.90;21.00;;;;;;;3.62;62.17;98650.47;3989260;86;21138;-86
2022/04/18 22:33:37;;;;;;;50.20;19.73;;;;;;;3.50;62.45;98649.08;3989430;88;22026;-86
2022/04/18 22:39:41;;;;;;;47.38;19.30;;;;;;;3.54;62.76;98642.66;3990573;88;21143;-86
2022/04/18 22:45:42;;;;;;;57.27;24.37;;;;;;;3.44;62.43;98626.88;3993213;88;21075;-86
2022/04/18 22:51:44;;;;;;;52.33;20.37;;;;;;;3.44;63.61;98636.34;3989554;88;21135;-87
2022/04/18 22:57:46;;;;;;;46.23;21.42;;;;;;;3.43;63.47;98627.21;3993098;88;21104;-86
2022/04/18 23:03:50;;;;;;;53.92;22.50;;;;;;;3.52;63.80;98624.63;3995600;88;21662;-87
2022/04/18 23:10:08;;;;;;;;;;;;;;;;;;;;;
2022/04/18 23:16:07;;;;;;;45.90;21.25;;;;;;;3.33;63.99;98604.64;3987116;88;21059;-87
2022/04/18 23:22:17;;;;;;;53.10;23.25;;;;;;;3.39;65.34;98598.68;3962434;88;21135;-87
2022/04/18 23:28:16;;;;;;;39.88;17.45;;;;;;;3.49;65.59;98590.13;3999763;86;21945;-86
2022/04/18 23:34:20;;;;;;;59.35;25.10;;;;;;;3.49;66.15;98586.07;4065538;85;21075;-87
2022/04/18 23:46:47;;;;;;;55.45;24.65;;;;;;;3.53;66.17;98589.66;4056933;85;21016;-86
2022/04/18 23:52:52;;;;;;;50.23;23.77;;;;;;;3.58;66.12;98585.94;4059935;86;21491;-86
2022/04/18 23:59:01;;;;;;;44.50;19.62;;;;;;;3.56;66.25;98580.86;4058907;86;21023;-87
